createdAt,value
2022-10-18T00:00:00.684Z,12.70
2022-10-18T00:02:27.359Z,12.70
2022-10-18T00:04:54.104Z,12.70
2022-10-18T00:07:20.729Z,12.70
2022-10-18T00:09:47.372Z,12.40
2022-10-18T00:12:14.031Z,12.00
2022-10-18T00:14:40.684Z,12.00
2022-10-18T00:17:07.472Z,11.90
2022-10-18T00:19:34.109Z,11.90
2022-10-18T00:22:00.793Z,11.90
2022-10-18T00:24:27.436Z,12.00
2022-10-18T00:26:54.137Z,12.20
2022-10-18T00:29:20.783Z,12.30
2022-10-18T00:31:47.464Z,12.40
2022-10-18T00:34:16.115Z,12.30
2022-10-18T00:36:44.163Z,12.10
2022-10-18T00:39:16.720Z,12.00
2022-10-18T00:41:43.845Z,12.00
2022-10-18T00:44:13.444Z,11.90
2022-10-18T00:46:46.526Z,11.80
2022-10-18T00:49:17.151Z,11.90
2022-10-18T00:51:45.901Z,12.00
2022-10-18T00:54:17.615Z,12.00
2022-10-18T00:56:45.147Z,11.90
2022-10-18T00:59:15.041Z,11.70
2022-10-18T01:01:41.869Z,11.70
2022-10-18T01:04:08.536Z,11.50
2022-10-18T01:06:48.098Z,11.40
2022-10-18T01:09:41.696Z,11.30
2022-10-18T01:12:38.517Z,11.30
2022-10-18T01:15:24.025Z,11.30
2022-10-18T01:18:03.546Z,11.40
2022-10-18T01:20:54.544Z,11.40
2022-10-18T01:23:58.751Z,11.30
2022-10-18T01:27:03.126Z,11.30
2022-10-18T01:29:35.512Z,11.30
2022-10-18T01:32:10.365Z,11.20
2022-10-18T01:34:40.084Z,11.20
2022-10-18T01:37:09.400Z,11.10
2022-10-18T01:39:40.026Z,11.10
2022-10-18T01:42:11.541Z,11.10
2022-10-18T01:44:39.925Z,11.20
2022-10-18T01:47:09.390Z,11.20
2022-10-18T01:49:36.079Z,11.30
2022-10-18T01:52:03.027Z,11.30
2022-10-18T01:54:39.530Z,11.30
2022-10-18T01:57:21.328Z,11.40
2022-10-18T02:00:03.110Z,11.50
2022-10-18T02:02:56.596Z,11.50
2022-10-18T02:05:51.528Z,11.30
2022-10-18T02:08:30.606Z,11.10
2022-10-18T02:11:02.926Z,11.20
2022-10-18T02:13:42.883Z,11.30
2022-10-18T02:16:17.134Z,11.30
2022-10-18T02:18:53.343Z,11.30
2022-10-18T02:21:21.854Z,11.30
2022-10-18T02:23:49.478Z,11.10
2022-10-18T02:26:16.662Z,11.10
2022-10-18T02:28:43.972Z,11.10
2022-10-18T02:31:19.060Z,11.10
2022-10-18T02:33:55.631Z,11.10
2022-10-18T02:36:45.086Z,11.10
2022-10-18T02:39:19.138Z,11.20
2022-10-18T02:41:46.698Z,11.20
2022-10-18T02:44:13.422Z,11.20
2022-10-18T02:46:40.355Z,11.10
2022-10-18T02:49:07.195Z,11.00
2022-10-18T02:51:33.981Z,10.70
2022-10-18T02:54:00.694Z,10.60
2022-10-18T02:56:27.344Z,10.70
2022-10-18T02:58:54.060Z,10.80
2022-10-18T03:01:20.777Z,10.90
2022-10-18T03:03:47.492Z,10.90
2022-10-18T03:06:14.271Z,10.90
2022-10-18T03:08:40.951Z,10.80
2022-10-18T03:11:07.693Z,10.70
2022-10-18T03:13:34.557Z,10.50
2022-10-18T03:16:01.585Z,10.30
2022-10-18T03:18:28.287Z,10.40
2022-10-18T03:20:54.917Z,10.50
2022-10-18T03:23:21.739Z,10.60
2022-10-18T03:25:48.472Z,10.60
2022-10-18T03:28:15.114Z,10.50
2022-10-18T03:30:41.749Z,10.50
2022-10-18T03:33:08.398Z,10.60
2022-10-18T03:35:35.035Z,10.70
2022-10-18T03:38:01.695Z,10.80
2022-10-18T03:40:28.375Z,10.90
2022-10-18T03:42:55.016Z,10.90
2022-10-18T03:45:21.671Z,10.70
2022-10-18T03:47:48.318Z,10.60
2022-10-18T03:50:15.047Z,10.60
2022-10-18T03:52:41.704Z,10.60
2022-10-18T03:55:08.662Z,10.50
2022-10-18T03:57:35.421Z,10.60
2022-10-18T04:00:02.077Z,10.50
2022-10-18T04:02:28.864Z,10.40
2022-10-18T04:04:55.680Z,10.00
2022-10-18T04:07:22.321Z,10.00
2022-10-18T04:09:49.104Z,10.10
2022-10-18T04:12:15.768Z,10.20
2022-10-18T04:14:42.453Z,10.20
2022-10-18T04:17:09.130Z,10.10
2022-10-18T04:19:35.913Z,10.10
2022-10-18T04:22:02.613Z,10.10
2022-10-18T04:24:29.368Z,10.10
2022-10-18T04:26:56.049Z,10.00
2022-10-18T04:29:22.794Z,10.00
2022-10-18T04:31:49.473Z,10.10
2022-10-18T04:34:16.188Z,10.00
2022-10-18T04:36:42.844Z,10.00
2022-10-18T04:39:09.566Z,10.10
2022-10-18T04:41:36.464Z,10.10
2022-10-18T04:44:03.344Z,10.20
2022-10-18T04:46:30.065Z,10.20
2022-10-18T04:48:56.761Z,10.20
2022-10-18T04:51:23.482Z,10.10
2022-10-18T04:53:50.169Z,10.10
2022-10-18T04:56:16.825Z,10.10
2022-10-18T04:58:43.440Z,9.90
2022-10-18T05:01:10.086Z,9.90
2022-10-18T05:03:36.761Z,9.70
2022-10-18T05:06:03.714Z,9.80
2022-10-18T05:08:32.041Z,9.90
2022-10-18T05:10:58.969Z,9.80
2022-10-18T05:13:26.025Z,9.80
2022-10-18T05:15:52.822Z,9.80
2022-10-18T05:18:19.982Z,9.80
2022-10-18T05:20:46.873Z,9.90
2022-10-18T05:23:13.564Z,9.90
2022-10-18T05:25:41.306Z,9.90
2022-10-18T05:28:15.605Z,10.00
2022-10-18T05:30:54.071Z,10.10
2022-10-18T05:33:20.711Z,10.10
2022-10-18T05:35:47.365Z,10.10
2022-10-18T05:38:13.997Z,10.10
2022-10-18T05:40:40.677Z,10.20
2022-10-18T05:43:07.710Z,10.30
2022-10-18T05:45:34.407Z,10.30
2022-10-18T05:48:01.163Z,10.30
2022-10-18T05:50:28.090Z,10.30
2022-10-18T05:53:06.907Z,10.40
2022-10-18T05:55:44.898Z,10.30
2022-10-18T05:58:11.580Z,10.40
2022-10-18T06:00:38.653Z,10.50
2022-10-18T06:03:05.407Z,10.60
2022-10-18T06:05:32.118Z,10.70
2022-10-18T06:07:58.828Z,10.70
2022-10-18T06:10:25.641Z,10.80
2022-10-18T06:12:52.813Z,10.90
2022-10-18T06:15:19.519Z,10.90
2022-10-18T06:17:46.170Z,11.00
2022-10-18T06:20:12.856Z,11.10
2022-10-18T06:22:39.530Z,11.30
2022-10-18T06:25:06.780Z,11.30
2022-10-18T06:27:34.809Z,11.30
2022-10-18T06:30:01.881Z,11.40
2022-10-18T06:32:28.531Z,11.40
2022-10-18T06:34:55.152Z,11.60
2022-10-18T06:37:21.805Z,11.70
2022-10-18T06:39:48.458Z,11.80
2022-10-18T06:42:16.970Z,11.90
2022-10-18T06:44:46.001Z,12.00
2022-10-18T06:47:12.696Z,12.20
2022-10-18T06:49:39.344Z,12.30
2022-10-18T06:52:07.336Z,12.30
2022-10-18T06:54:34.228Z,12.30
2022-10-18T06:57:02.637Z,12.30
2022-10-18T06:59:31.323Z,12.40
2022-10-18T07:01:58.393Z,12.40
2022-10-18T07:04:28.785Z,12.40
2022-10-18T07:06:55.454Z,12.40
2022-10-18T07:09:22.118Z,12.40
2022-10-18T07:11:48.777Z,12.50
2022-10-18T07:14:16.583Z,12.50
2022-10-18T07:16:43.475Z,12.50
2022-10-18T07:19:10.118Z,12.60
2022-10-18T07:21:36.779Z,12.70
2022-10-18T07:24:03.610Z,12.80
2022-10-18T07:26:33.255Z,12.80
2022-10-18T07:29:06.148Z,12.80
2022-10-18T07:31:33.534Z,12.90
2022-10-18T07:34:00.250Z,13.00
2022-10-18T07:36:27.162Z,13.10
2022-10-18T07:38:54.338Z,13.20
2022-10-18T07:41:21.907Z,13.30
2022-10-18T07:43:51.012Z,13.40
2022-10-18T07:46:19.459Z,13.50
2022-10-18T07:48:46.365Z,13.60
2022-10-18T07:51:14.155Z,13.70
2022-10-18T07:53:41.095Z,13.80
2022-10-18T07:56:15.695Z,14.00
2022-10-18T07:58:47.345Z,14.10
2022-10-18T08:01:15.143Z,14.30
2022-10-18T08:03:43.060Z,14.50
2022-10-18T08:06:11.541Z,14.60
2022-10-18T08:08:39.791Z,14.70
2022-10-18T08:11:10.612Z,14.90
2022-10-18T08:13:37.390Z,15.00
2022-10-18T08:16:13.186Z,15.30
2022-10-18T08:18:40.309Z,15.50
2022-10-18T08:21:08.852Z,15.60
2022-10-18T08:23:36.376Z,15.60
2022-10-18T08:26:12.752Z,15.50
2022-10-18T08:28:40.496Z,15.50
2022-10-18T08:31:11.606Z,15.40
2022-10-18T08:33:39.649Z,15.60
2022-10-18T08:36:08.795Z,16.10
2022-10-18T08:38:38.314Z,16.60
2022-10-18T08:41:38.373Z,16.80
2022-10-18T08:44:24.587Z,17.10
2022-10-18T08:47:06.684Z,17.30
2022-10-18T08:49:46.272Z,17.20
2022-10-18T08:52:41.936Z,17.20
2022-10-18T08:55:19.941Z,17.40
2022-10-18T08:57:48.296Z,17.50
2022-10-18T09:00:18.232Z,17.70
2022-10-18T09:03:20.106Z,17.90
2022-10-18T09:05:53.291Z,18.10
2022-10-18T09:08:35.786Z,18.40
2022-10-18T09:11:33.157Z,18.50
2022-10-18T09:14:12.622Z,18.70
2022-10-18T09:16:42.269Z,18.90
2022-10-18T09:19:39.683Z,19.10
2022-10-18T09:22:12.894Z,19.40
2022-10-18T09:24:44.619Z,19.50
2022-10-18T09:27:18.473Z,19.70
2022-10-18T09:30:11.602Z,19.70
2022-10-18T09:33:07.900Z,19.80
2022-10-18T09:35:49.154Z,19.90
2022-10-18T09:38:19.479Z,20.20
2022-10-18T09:40:56.073Z,20.40
2022-10-18T09:43:45.457Z,20.40
2022-10-18T09:46:13.424Z,20.60
2022-10-18T09:48:49.132Z,20.60
2022-10-18T09:51:23.465Z,20.60
2022-10-18T09:54:11.695Z,20.60
2022-10-18T09:57:00.054Z,20.80
2022-10-18T09:59:49.796Z,21.00
2022-10-18T10:02:21.017Z,21.10
2022-10-18T10:04:48.847Z,21.20
2022-10-18T10:07:21.340Z,21.50
2022-10-18T10:10:18.540Z,21.50
2022-10-18T10:12:45.996Z,21.30
2022-10-18T10:15:23.196Z,20.90
2022-10-18T10:18:19.117Z,20.80
2022-10-18T10:20:48.366Z,20.80
2022-10-18T10:23:36.506Z,20.90
2022-10-18T10:26:07.038Z,21.00
2022-10-18T10:28:41.378Z,21.00
2022-10-18T10:31:33.612Z,21.10
2022-10-18T10:34:14.741Z,21.30
2022-10-18T10:36:52.552Z,21.40
2022-10-18T10:39:21.360Z,21.30
2022-10-18T10:41:56.591Z,21.60
2022-10-18T10:44:25.856Z,21.70
2022-10-18T10:46:54.815Z,21.90
2022-10-18T10:49:40.800Z,22.00
2022-10-18T10:52:26.859Z,22.10
2022-10-18T10:55:05.683Z,22.20
2022-10-18T10:57:38.750Z,22.10
2022-10-18T11:00:05.776Z,22.20
2022-10-18T11:02:34.960Z,22.20
2022-10-18T11:05:25.000Z,22.40
2022-10-18T11:07:56.404Z,22.50
2022-10-18T11:10:27.063Z,22.60
2022-10-18T11:13:04.996Z,22.80
2022-10-18T11:15:48.192Z,22.90
2022-10-18T11:18:20.594Z,22.90
2022-10-18T11:21:00.238Z,23.10
2022-10-18T11:23:31.308Z,23.30
2022-10-18T11:26:13.022Z,23.30
2022-10-18T11:28:51.881Z,23.30
2022-10-18T11:31:22.506Z,23.30
2022-10-18T11:34:13.394Z,23.60
2022-10-18T11:37:15.588Z,23.40
2022-10-18T11:39:55.958Z,23.00
2022-10-18T11:42:52.020Z,22.60
2022-10-18T11:45:42.399Z,22.60
2022-10-18T11:48:36.114Z,23.00
2022-10-18T11:51:15.241Z,23.30
2022-10-18T11:53:50.944Z,23.70
2022-10-18T11:56:49.667Z,23.90
2022-10-18T11:59:25.397Z,24.00
2022-10-18T12:01:58.146Z,24.00
2022-10-18T12:04:45.092Z,24.10
2022-10-18T12:07:28.999Z,24.10
2022-10-18T12:10:00.507Z,24.20
2022-10-18T12:12:32.984Z,24.30
2022-10-18T12:15:04.807Z,24.40
2022-10-18T12:17:50.123Z,24.20
2022-10-18T12:20:26.990Z,24.30
2022-10-18T12:23:01.206Z,24.60
2022-10-18T12:25:30.795Z,24.50
2022-10-18T12:28:09.924Z,24.30
2022-10-18T12:30:53.837Z,24.30
2022-10-18T12:33:28.886Z,24.40
2022-10-18T12:36:10.624Z,24.50
2022-10-18T12:38:40.839Z,24.50
2022-10-18T12:41:16.684Z,24.60
2022-10-18T12:43:54.809Z,24.80
2022-10-18T12:46:21.714Z,24.70
2022-10-18T12:49:03.503Z,24.80
2022-10-18T12:51:30.471Z,24.80
2022-10-18T12:54:03.136Z,24.60
2022-10-18T12:56:29.757Z,24.80
2022-10-18T12:59:15.282Z,25.00
2022-10-18T13:01:51.350Z,25.00
2022-10-18T13:04:27.453Z,25.00
2022-10-18T13:07:33.491Z,25.00
2022-10-18T13:10:23.273Z,25.10
2022-10-18T13:13:13.171Z,25.10
2022-10-18T13:16:06.829Z,25.10
2022-10-18T13:18:47.114Z,25.10
2022-10-18T13:21:41.501Z,25.00
2022-10-18T13:24:19.977Z,25.00
2022-10-18T13:26:58.200Z,25.00
2022-10-18T13:30:00.647Z,25.10
2022-10-18T13:32:35.029Z,25.00
2022-10-18T13:35:02.169Z,25.00
2022-10-18T13:37:30.752Z,24.80
2022-10-18T13:40:36.318Z,24.60
2022-10-18T13:43:40.088Z,24.30
2022-10-18T13:46:06.759Z,24.00
2022-10-18T13:48:33.393Z,23.50
2022-10-18T13:51:25.527Z,23.30
2022-10-18T13:54:12.582Z,23.00
2022-10-18T13:56:53.973Z,22.80
2022-10-18T13:59:26.632Z,22.80
2022-10-18T14:02:02.411Z,22.70
2022-10-18T14:04:44.207Z,22.60
2022-10-18T14:07:11.744Z,22.50
2022-10-18T14:09:52.418Z,22.40
2022-10-18T14:12:41.557Z,22.30
2022-10-18T14:15:17.039Z,22.20
2022-10-18T14:17:49.253Z,22.00
2022-10-18T14:20:48.963Z,21.90
2022-10-18T14:23:27.689Z,21.80
2022-10-18T14:26:12.850Z,21.70
2022-10-18T14:28:58.550Z,21.70
2022-10-18T14:31:26.654Z,21.70
2022-10-18T14:33:58.052Z,21.70
2022-10-18T14:36:29.291Z,21.60
2022-10-18T14:39:04.731Z,21.50
2022-10-18T14:41:34.245Z,21.50
2022-10-18T14:44:16.222Z,21.40
2022-10-18T14:46:44.590Z,21.40
2022-10-18T14:49:13.201Z,21.40
2022-10-18T14:51:42.338Z,21.30
2022-10-18T14:54:22.295Z,21.30
2022-10-18T14:56:50.912Z,21.20
2022-10-18T14:59:24.840Z,21.20
2022-10-18T15:02:05.085Z,21.10
2022-10-18T15:04:34.690Z,21.10
2022-10-18T15:07:14.580Z,21.00
2022-10-18T15:09:42.038Z,21.00
2022-10-18T15:12:12.032Z,21.00
2022-10-18T15:14:40.447Z,20.90
2022-10-18T15:17:20.462Z,20.90
2022-10-18T15:20:01.831Z,20.90
2022-10-18T15:22:33.444Z,20.80
2022-10-18T15:25:06.038Z,20.70
2022-10-18T15:27:36.555Z,20.60
2022-10-18T15:30:17.918Z,20.50
2022-10-18T15:32:53.669Z,20.40
2022-10-18T15:35:28.852Z,20.40
2022-10-18T15:37:58.167Z,20.30
2022-10-18T15:40:24.797Z,20.30
2022-10-18T15:42:56.805Z,20.20
2022-10-18T15:45:30.695Z,20.20
2022-10-18T15:48:06.194Z,20.20
2022-10-18T15:50:43.403Z,20.10
2022-10-18T15:53:25.528Z,20.10
2022-10-18T15:55:55.145Z,20.00
2022-10-18T15:58:39.927Z,19.90
2022-10-18T16:01:16.523Z,19.90
2022-10-18T16:03:45.313Z,19.80
2022-10-18T16:06:15.900Z,19.70
2022-10-18T16:08:48.011Z,19.70
2022-10-18T16:11:23.664Z,19.60
2022-10-18T16:13:51.067Z,19.50
2022-10-18T16:16:22.919Z,19.40
2022-10-18T16:18:50.314Z,19.40
2022-10-18T16:21:25.134Z,19.40
2022-10-18T16:23:51.840Z,19.50
2022-10-18T16:26:20.023Z,19.40
2022-10-18T16:28:47.891Z,19.30
2022-10-18T16:31:35.166Z,19.20
2022-10-18T16:34:02.420Z,19.20
2022-10-18T16:36:31.218Z,19.10
2022-10-18T16:39:00.742Z,19.00
2022-10-18T16:41:27.857Z,18.90
2022-10-18T16:43:54.618Z,18.80
2022-10-18T16:46:24.800Z,18.70
2022-10-18T16:48:51.892Z,18.60
2022-10-18T16:51:18.570Z,18.60
2022-10-18T16:53:45.436Z,18.50
2022-10-18T16:56:26.838Z,18.50
2022-10-18T16:58:54.343Z,18.40
2022-10-18T17:01:23.195Z,18.40
2022-10-18T17:03:52.118Z,18.40
2022-10-18T17:06:27.562Z,18.30
2022-10-18T17:08:55.159Z,18.30
2022-10-18T17:11:23.556Z,18.20
2022-10-18T17:13:50.253Z,18.20
2022-10-18T17:16:36.778Z,18.20
2022-10-18T17:19:06.398Z,18.10
2022-10-18T17:21:33.544Z,18.10
2022-10-18T17:24:04.331Z,18.10
2022-10-18T17:26:31.733Z,18.00
2022-10-18T17:29:01.373Z,18.00
2022-10-18T17:31:29.610Z,18.00
2022-10-18T17:33:58.337Z,18.00
2022-10-18T17:36:25.720Z,17.90
2022-10-18T17:38:55.569Z,17.90
2022-10-18T17:41:22.284Z,17.90
2022-10-18T17:43:49.126Z,17.90
2022-10-18T17:46:17.818Z,17.90
2022-10-18T17:48:44.556Z,17.80
2022-10-18T17:51:16.717Z,17.80
2022-10-18T17:53:43.745Z,17.80
2022-10-18T17:56:11.211Z,17.70
2022-10-18T17:58:37.945Z,17.70
2022-10-18T18:01:16.815Z,17.70
2022-10-18T18:03:44.383Z,17.70
2022-10-18T18:06:15.864Z,17.70
2022-10-18T18:08:42.670Z,17.60
2022-10-18T18:11:09.318Z,17.50
2022-10-18T18:13:35.983Z,17.60
2022-10-18T18:16:18.176Z,17.60
2022-10-18T18:18:46.128Z,17.60
2022-10-18T18:21:13.353Z,17.60
2022-10-18T18:23:40.265Z,17.60
2022-10-18T18:26:07.100Z,17.60
2022-10-18T18:28:35.968Z,17.50
2022-10-18T18:31:13.195Z,17.40
2022-10-18T18:33:39.916Z,17.40
2022-10-18T18:36:07.369Z,17.30
2022-10-18T18:38:35.994Z,17.20
2022-10-18T18:41:14.675Z,17.20
2022-10-18T18:43:44.222Z,17.30
2022-10-18T18:46:15.254Z,17.30
2022-10-18T18:48:42.475Z,17.20
2022-10-18T18:51:13.270Z,17.20
2022-10-18T18:53:41.228Z,17.10
2022-10-18T18:56:14.137Z,17.20
2022-10-18T18:58:43.924Z,17.10
2022-10-18T19:01:19.419Z,17.10
2022-10-18T19:03:48.845Z,17.10
2022-10-18T19:06:18.365Z,17.10
2022-10-18T19:08:46.040Z,17.10
2022-10-18T19:11:17.109Z,17.10
2022-10-18T19:13:44.476Z,17.10
2022-10-18T19:16:17.138Z,17.10
2022-10-18T19:18:43.892Z,17.10
2022-10-18T19:21:10.508Z,17.10
2022-10-18T19:23:37.176Z,17.10
2022-10-18T19:26:25.564Z,17.10
2022-10-18T19:28:52.621Z,17.00
2022-10-18T19:31:19.704Z,17.00
2022-10-18T19:33:55.563Z,17.00
2022-10-18T19:36:25.610Z,16.90
2022-10-18T19:38:52.257Z,16.80
2022-10-18T19:41:19.096Z,16.80
2022-10-18T19:43:45.809Z,16.70
2022-10-18T19:46:12.504Z,16.60
2022-10-18T19:48:39.258Z,16.60
2022-10-18T19:51:09.412Z,16.60
2022-10-18T19:53:36.654Z,16.60
2022-10-18T19:56:05.050Z,16.50
2022-10-18T19:58:32.204Z,16.50
2022-10-18T20:01:00.183Z,16.60
2022-10-18T20:03:30.235Z,16.50
2022-10-18T20:05:58.650Z,16.50
2022-10-18T20:08:26.927Z,16.50
2022-10-18T20:10:54.184Z,16.50
2022-10-18T20:13:21.725Z,16.40
2022-10-18T20:15:52.032Z,16.40
2022-10-18T20:18:19.969Z,16.40
2022-10-18T20:20:48.268Z,16.30
2022-10-18T20:23:16.584Z,16.30
2022-10-18T20:25:43.968Z,16.20
2022-10-18T20:28:10.718Z,16.20
2022-10-18T20:30:37.400Z,16.10
2022-10-18T20:33:04.104Z,16.10
2022-10-18T20:35:30.836Z,16.10
2022-10-18T20:37:57.524Z,16.00
2022-10-18T20:40:24.189Z,16.00
2022-10-18T20:42:52.526Z,15.90
2022-10-18T20:45:19.270Z,15.90
2022-10-18T20:47:46.347Z,15.90
2022-10-18T20:50:13.033Z,15.80
2022-10-18T20:52:39.690Z,15.70
2022-10-18T20:55:06.665Z,15.70
2022-10-18T20:57:36.448Z,15.70
2022-10-18T21:00:04.360Z,15.70
2022-10-18T21:02:31.165Z,15.60
2022-10-18T21:04:57.860Z,15.60
2022-10-18T21:07:24.570Z,15.60
2022-10-18T21:09:51.744Z,15.60
2022-10-18T21:12:18.456Z,15.50
2022-10-18T21:14:45.114Z,15.50
2022-10-18T21:17:11.980Z,15.40
2022-10-18T21:19:38.658Z,15.30
2022-10-18T21:22:05.383Z,15.20
2022-10-18T21:24:32.258Z,15.00
2022-10-18T21:27:00.269Z,15.00
2022-10-18T21:29:27.047Z,15.00
2022-10-18T21:31:55.779Z,15.00
2022-10-18T21:34:22.506Z,15.10
2022-10-18T21:36:49.535Z,15.00
2022-10-18T21:39:21.795Z,14.90
2022-10-18T21:41:49.146Z,15.00
2022-10-18T21:44:16.687Z,14.90
2022-10-18T21:46:43.561Z,15.00
2022-10-18T21:49:11.015Z,15.00
2022-10-18T21:51:38.224Z,15.00
2022-10-18T21:54:06.711Z,15.00
2022-10-18T21:56:34.861Z,15.00
2022-10-18T21:59:02.504Z,15.00
2022-10-18T22:01:32.827Z,15.00
2022-10-18T22:04:01.142Z,14.90
2022-10-18T22:06:32.058Z,14.90
2022-10-18T22:09:01.266Z,14.90
2022-10-18T22:11:31.043Z,14.90
2022-10-18T22:13:58.383Z,14.90
2022-10-18T22:16:25.774Z,14.90
2022-10-18T22:18:57.882Z,14.90
2022-10-18T22:21:24.880Z,14.90
2022-10-18T22:23:53.643Z,14.90
2022-10-18T22:26:30.006Z,14.90
2022-10-18T22:29:02.567Z,14.90
2022-10-18T22:31:31.792Z,14.90
2022-10-18T22:34:01.585Z,14.80
2022-10-18T22:36:28.502Z,14.80
2022-10-18T22:38:55.207Z,14.80
2022-10-18T22:41:21.938Z,14.80
2022-10-18T22:43:50.703Z,14.90
2022-10-18T22:46:18.109Z,15.00
2022-10-18T22:48:45.427Z,15.10
2022-10-18T22:51:12.609Z,15.10
2022-10-18T22:53:40.408Z,15.10
2022-10-18T22:56:09.614Z,15.10
2022-10-18T22:58:36.262Z,15.10
2022-10-18T23:01:08.386Z,15.00
2022-10-18T23:03:36.126Z,15.10
2022-10-18T23:06:03.553Z,15.00
2022-10-18T23:08:30.580Z,15.00
2022-10-18T23:10:59.384Z,14.90
2022-10-18T23:13:27.415Z,15.00
2022-10-18T23:16:04.354Z,15.00
2022-10-18T23:18:32.413Z,15.00
2022-10-18T23:21:10.798Z,15.00
2022-10-18T23:23:39.234Z,15.00
2022-10-18T23:26:09.499Z,15.00
2022-10-18T23:28:38.603Z,14.90
2022-10-18T23:31:11.219Z,14.90
2022-10-18T23:33:38.564Z,14.90
2022-10-18T23:36:06.359Z,14.90
2022-10-18T23:38:33.995Z,14.90
2022-10-18T23:41:00.917Z,14.90
2022-10-18T23:43:27.564Z,14.80
2022-10-18T23:45:54.271Z,14.70
2022-10-18T23:48:20.929Z,14.60
2022-10-18T23:50:47.712Z,14.60
2022-10-18T23:53:14.472Z,14.60
2022-10-18T23:55:49.927Z,14.70
2022-10-18T23:58:16.586Z,14.70
